createdAt,value
2022-08-25T00:02:19.632Z,24.63
2022-08-25T00:04:53.802Z,24.64
2022-08-25T00:07:21.728Z,24.64
2022-08-25T00:09:49.475Z,24.64
2022-08-25T00:12:17.222Z,24.64
2022-08-25T00:14:44.993Z,24.63
2022-08-25T00:17:12.733Z,24.64
2022-08-25T00:19:40.516Z,24.63
2022-08-25T00:22:08.231Z,24.62
2022-08-25T00:24:35.941Z,24.63
2022-08-25T00:27:04.012Z,24.62
2022-08-25T00:29:31.793Z,24.62
2022-08-25T00:31:59.544Z,24.62
2022-08-25T00:34:27.311Z,24.61
2022-08-25T00:36:55.048Z,24.63
2022-08-25T00:39:22.771Z,24.62
2022-08-25T00:41:50.515Z,24.62
2022-08-25T00:44:18.898Z,24.62
2022-08-25T00:46:47.179Z,24.62
2022-08-25T00:49:24.625Z,24.62
2022-08-25T00:51:53.280Z,24.61
2022-08-25T00:54:21.059Z,24.61
2022-08-25T00:56:48.842Z,24.62
2022-08-25T00:59:16.582Z,24.61
2022-08-25T01:01:44.365Z,24.62
2022-08-25T01:04:12.579Z,24.61
2022-08-25T01:06:40.328Z,24.60
2022-08-25T01:09:08.165Z,24.61
2022-08-25T01:11:35.974Z,24.61
2022-08-25T01:14:06.508Z,24.61
2022-08-25T01:16:34.444Z,24.60
2022-08-25T01:19:02.147Z,24.59
2022-08-25T01:21:29.854Z,24.61
2022-08-25T01:23:58.249Z,24.60
2022-08-25T01:26:30.135Z,24.60
2022-08-25T01:29:15.611Z,24.60
2022-08-25T01:31:43.335Z,24.58
2022-08-25T01:34:12.295Z,24.58
2022-08-25T01:36:40.080Z,24.59
2022-08-25T01:39:07.817Z,24.59
2022-08-25T01:41:35.475Z,24.58
2022-08-25T01:44:03.259Z,24.58
2022-08-25T01:46:31.111Z,24.60
2022-08-25T01:48:58.939Z,24.59
2022-08-25T01:51:26.656Z,24.59
2022-08-25T01:53:54.408Z,24.59
2022-08-25T01:56:22.122Z,24.59
2022-08-25T01:58:50.021Z,24.59
2022-08-25T02:01:17.897Z,24.59
2022-08-25T02:03:46.239Z,24.59
2022-08-25T02:06:14.193Z,24.59
2022-08-25T02:08:41.918Z,24.60
2022-08-25T02:11:09.887Z,24.58
2022-08-25T02:13:37.600Z,24.58
2022-08-25T02:16:05.338Z,24.59
2022-08-25T02:18:33.066Z,24.58
2022-08-25T02:21:00.826Z,24.57
2022-08-25T02:23:28.615Z,24.58
2022-08-25T02:25:57.345Z,24.58
2022-08-25T02:28:25.050Z,24.58
2022-08-25T02:30:53.273Z,24.58
2022-08-25T02:33:29.213Z,24.58
2022-08-25T02:35:57.015Z,24.57
2022-08-25T02:38:25.097Z,24.57
2022-08-25T02:40:52.816Z,24.57
2022-08-25T02:43:20.564Z,24.57
2022-08-25T02:45:48.304Z,24.58
2022-08-25T02:48:16.066Z,24.58
2022-08-25T02:50:43.910Z,24.57
2022-08-25T02:53:11.718Z,24.57
2022-08-25T02:55:40.843Z,24.57
2022-08-25T02:58:09.151Z,24.58
2022-08-25T03:00:36.877Z,24.57
2022-08-25T03:03:04.618Z,24.57
2022-08-25T03:05:34.056Z,24.56
2022-08-25T03:08:01.804Z,24.57
2022-08-25T03:10:29.586Z,24.56
2022-08-25T03:12:57.328Z,24.58
2022-08-25T03:15:25.669Z,24.56
2022-08-25T03:17:53.638Z,24.56
2022-08-25T03:20:21.384Z,24.56
2022-08-25T03:22:49.096Z,24.57
2022-08-25T03:25:33.561Z,24.56
2022-08-25T03:28:01.401Z,24.55
2022-08-25T03:30:29.465Z,24.56
2022-08-25T03:32:57.341Z,24.55
2022-08-25T03:35:25.158Z,24.55
2022-08-25T03:37:53.057Z,24.56
2022-08-25T03:40:21.525Z,24.56
2022-08-25T03:42:49.391Z,24.55
2022-08-25T03:45:17.427Z,24.55
2022-08-25T03:47:45.289Z,24.56
2022-08-25T03:50:13.134Z,24.55
2022-08-25T03:52:42.777Z,24.55
2022-08-25T03:55:10.871Z,24.54
2022-08-25T03:57:38.707Z,24.55
2022-08-25T04:00:06.494Z,24.55
2022-08-25T04:02:34.745Z,24.55
2022-08-25T04:05:02.514Z,24.56
2022-08-25T04:07:30.594Z,24.56
2022-08-25T04:09:58.334Z,24.56
2022-08-25T04:12:26.088Z,24.56
2022-08-25T04:14:53.817Z,24.56
2022-08-25T04:17:21.915Z,24.55
2022-08-25T04:19:50.849Z,24.56
2022-08-25T04:22:18.594Z,24.56
2022-08-25T04:24:46.297Z,24.55
2022-08-25T04:27:13.961Z,24.56
2022-08-25T04:29:41.709Z,24.56
2022-08-25T04:32:09.525Z,24.55
2022-08-25T04:34:37.341Z,24.56
2022-08-25T04:37:06.334Z,24.56
2022-08-25T04:39:34.208Z,24.55
2022-08-25T04:42:01.963Z,24.54
2022-08-25T04:44:29.711Z,24.55
2022-08-25T04:46:57.436Z,24.54
2022-08-25T04:49:25.179Z,24.55
2022-08-25T04:51:52.931Z,24.55
2022-08-25T04:54:22.244Z,24.56
2022-08-25T04:56:50.030Z,24.56
2022-08-25T04:59:17.850Z,24.55
2022-08-25T05:01:47.004Z,24.54
2022-08-25T05:04:28.125Z,24.55
2022-08-25T05:06:56.408Z,24.55
2022-08-25T05:09:25.058Z,24.54
2022-08-25T05:11:53.078Z,24.55
2022-08-25T05:14:26.516Z,24.56
2022-08-25T05:16:54.532Z,24.56
2022-08-25T05:19:22.874Z,24.56
2022-08-25T05:21:50.603Z,24.57
2022-08-25T05:24:18.339Z,24.58
2022-08-25T05:26:46.092Z,24.58
2022-08-25T05:29:14.437Z,24.58
2022-08-25T05:31:47.122Z,24.59
2022-08-25T05:34:18.917Z,24.58
2022-08-25T05:36:46.765Z,24.58
2022-08-25T05:39:14.554Z,24.57
2022-08-25T05:41:42.268Z,24.58
2022-08-25T05:44:10.037Z,24.58
2022-08-25T05:46:37.801Z,24.58
2022-08-25T05:49:05.511Z,24.59
2022-08-25T05:51:33.239Z,24.59
2022-08-25T05:54:00.967Z,24.58
2022-08-25T05:56:28.725Z,24.59
2022-08-25T05:58:56.411Z,24.59
2022-08-25T06:01:43.361Z,24.61
2022-08-25T06:04:12.765Z,24.59
2022-08-25T06:06:40.649Z,24.61
2022-08-25T06:09:08.885Z,24.62
2022-08-25T06:11:36.559Z,24.63
2022-08-25T06:14:04.727Z,24.63
2022-08-25T06:16:33.043Z,24.64
2022-08-25T06:22:06.189Z,24.62
2022-08-25T06:24:34.263Z,24.64
2022-08-25T06:27:01.966Z,24.66
2022-08-25T06:29:29.642Z,24.63
2022-08-25T06:31:57.441Z,24.62
2022-08-25T06:34:25.149Z,24.58
2022-08-25T06:36:52.829Z,24.61
2022-08-25T06:39:20.551Z,24.58
2022-08-25T06:41:48.272Z,24.58
2022-08-25T06:44:15.957Z,24.57
2022-08-25T06:46:43.724Z,24.57
2022-08-25T06:49:11.537Z,24.57
2022-08-25T06:51:39.212Z,24.56
2022-08-25T06:54:06.908Z,24.58
2022-08-25T06:56:34.645Z,24.61
2022-08-25T06:59:02.399Z,24.64
2022-08-25T07:01:31.839Z,24.64
2022-08-25T07:03:59.858Z,24.66
2022-08-25T07:06:27.608Z,24.68
2022-08-25T07:08:55.270Z,24.68
2022-08-25T07:11:22.941Z,24.69
2022-08-25T07:13:50.678Z,24.70
2022-08-25T07:16:18.422Z,24.71
2022-08-25T07:18:46.261Z,24.72
2022-08-25T07:21:13.995Z,24.73
2022-08-25T07:23:41.729Z,24.73
2022-08-25T07:26:15.852Z,24.74
2022-08-25T07:31:59.653Z,24.73
2022-08-25T07:37:47.804Z,24.74
2022-08-25T07:40:14.413Z,24.75
2022-08-25T07:42:42.135Z,24.73
2022-08-25T07:45:10.865Z,24.75
2022-08-25T07:47:38.684Z,24.74
2022-08-25T07:50:06.925Z,24.75
2022-08-25T07:52:34.696Z,24.75
2022-08-25T07:55:02.717Z,24.80
2022-08-25T07:57:30.509Z,24.79
2022-08-25T07:59:58.740Z,24.81
2022-08-25T08:02:26.622Z,24.83
2022-08-25T08:04:54.381Z,24.82
2022-08-25T08:07:22.912Z,24.83
2022-08-25T08:10:00.377Z,24.82
2022-08-25T08:12:38.843Z,24.81
2022-08-25T08:15:10.274Z,24.81
2022-08-25T08:17:39.211Z,24.81
2022-08-25T08:20:08.888Z,24.81
2022-08-25T08:22:36.612Z,24.80
2022-08-25T08:25:04.306Z,24.83
2022-08-25T08:27:36.255Z,24.83
2022-08-25T08:30:04.175Z,24.85
2022-08-25T08:32:46.473Z,24.84
2022-08-25T08:35:24.786Z,24.84
2022-08-25T08:37:53.884Z,24.82
2022-08-25T08:40:21.846Z,24.85
2022-08-25T08:42:48.933Z,24.85
2022-08-25T08:45:17.028Z,24.86
2022-08-25T08:47:45.455Z,24.88
2022-08-25T08:50:13.178Z,24.86
2022-08-25T08:52:41.380Z,24.87
2022-08-25T08:55:10.300Z,24.86
2022-08-25T08:57:38.292Z,24.86
2022-08-25T09:00:06.013Z,24.84
2022-08-25T09:02:50.584Z,24.86
2022-08-25T09:05:21.036Z,24.88
2022-08-25T09:07:48.833Z,24.87
2022-08-25T09:10:22.385Z,24.87
2022-08-25T09:12:51.285Z,24.88
2022-08-25T09:15:19.106Z,24.87
2022-08-25T09:17:54.503Z,24.89
2022-08-25T09:20:22.724Z,24.91
2022-08-25T09:22:51.661Z,24.91
2022-08-25T09:25:39.622Z,24.91
2022-08-25T09:28:09.572Z,24.89
2022-08-25T09:30:37.312Z,24.88
2022-08-25T09:33:05.418Z,24.88
2022-08-25T09:35:33.442Z,24.87
2022-08-25T09:38:02.432Z,24.89
2022-08-25T09:40:30.322Z,24.90
2022-08-25T09:42:58.657Z,24.90
2022-08-25T09:45:26.582Z,24.90
2022-08-25T09:47:54.308Z,24.89
2022-08-25T09:50:22.100Z,24.89
2022-08-25T09:53:10.194Z,24.89
2022-08-25T09:55:39.432Z,24.87
2022-08-25T09:58:09.500Z,24.88
2022-08-25T10:00:37.401Z,24.88
2022-08-25T10:03:05.959Z,24.87
2022-08-25T10:05:37.134Z,24.88
2022-08-25T10:08:06.744Z,24.87
2022-08-25T10:10:34.595Z,24.88
2022-08-25T10:13:03.668Z,24.88
2022-08-25T10:15:34.157Z,24.87
2022-08-25T10:18:01.919Z,24.88
2022-08-25T10:20:33.051Z,24.88
2022-08-25T10:23:03.272Z,24.89
2022-08-25T10:25:31.092Z,24.88
2022-08-25T10:27:58.827Z,24.88
2022-08-25T10:30:26.552Z,24.87
2022-08-25T10:32:55.583Z,24.87
2022-08-25T10:35:23.715Z,24.85
2022-08-25T10:37:51.829Z,24.84
2022-08-25T10:40:19.637Z,24.85
2022-08-25T10:42:47.410Z,24.87
2022-08-25T10:45:32.585Z,24.91
2022-08-25T10:48:00.398Z,24.88
2022-08-25T10:50:29.380Z,24.90
2022-08-25T10:52:57.084Z,24.89
2022-08-25T10:55:24.941Z,24.92
2022-08-25T10:57:52.922Z,24.92
2022-08-25T11:00:22.436Z,24.92
2022-08-25T11:02:50.726Z,24.94
2022-08-25T11:05:24.567Z,24.94
2022-08-25T11:07:52.754Z,24.93
2022-08-25T11:10:20.484Z,24.93
2022-08-25T11:12:48.220Z,24.92
2022-08-25T11:15:15.974Z,24.92
2022-08-25T11:17:44.483Z,24.93
2022-08-25T11:20:19.431Z,24.94
2022-08-25T11:22:54.400Z,24.92
2022-08-25T11:25:22.187Z,24.91
2022-08-25T11:27:49.923Z,24.91
2022-08-25T11:30:17.805Z,24.88
2022-08-25T11:32:46.572Z,24.87
2022-08-25T11:35:14.856Z,24.91
2022-08-25T11:37:42.886Z,24.92
2022-08-25T11:40:11.762Z,24.92
2022-08-25T11:42:43.063Z,24.93
2022-08-25T11:45:11.471Z,24.91
2022-08-25T11:47:39.209Z,24.91
2022-08-25T11:50:06.984Z,24.89
2022-08-25T11:52:35.121Z,24.88
2022-08-25T11:55:02.967Z,24.88
2022-08-25T11:57:33.270Z,24.88
2022-08-25T12:00:00.997Z,24.89
2022-08-25T12:02:28.793Z,24.91
2022-08-25T12:04:56.695Z,24.90
2022-08-25T12:07:24.506Z,24.90
2022-08-25T12:09:53.818Z,24.92
2022-08-25T12:12:21.623Z,24.92
2022-08-25T12:14:49.417Z,24.89
2022-08-25T12:17:17.154Z,24.88
2022-08-25T12:19:44.954Z,24.88
2022-08-25T12:22:12.690Z,24.88
2022-08-25T12:24:40.461Z,24.87
2022-08-25T12:27:15.099Z,24.89
2022-08-25T12:29:42.839Z,24.90
2022-08-25T12:32:10.635Z,24.88
2022-08-25T12:34:38.357Z,24.88
2022-08-25T12:37:06.626Z,24.88
2022-08-25T12:39:34.397Z,24.90
2022-08-25T12:42:03.277Z,24.92
2022-08-25T12:44:31.073Z,24.92
2022-08-25T12:46:58.780Z,24.91
2022-08-25T12:49:30.563Z,24.89
2022-08-25T12:51:59.110Z,24.89
2022-08-25T12:54:27.319Z,24.89
2022-08-25T12:56:55.171Z,24.89
2022-08-25T12:59:22.991Z,24.89
2022-08-25T13:01:50.833Z,24.89
2022-08-25T13:04:18.682Z,24.88
2022-08-25T13:06:46.703Z,24.88
2022-08-25T13:09:14.576Z,24.88
2022-08-25T13:11:43.270Z,24.87
2022-08-25T13:14:12.592Z,24.86
2022-08-25T13:16:40.698Z,24.87
2022-08-25T13:19:08.407Z,24.89
2022-08-25T13:21:37.233Z,24.89
2022-08-25T13:24:05.272Z,24.87
2022-08-25T13:26:33.615Z,24.91
2022-08-25T13:29:01.384Z,24.91
2022-08-25T13:31:29.872Z,24.93
2022-08-25T13:33:58.017Z,24.92
2022-08-25T13:36:51.063Z,24.92
2022-08-25T13:39:45.561Z,24.91
2022-08-25T13:42:09.621Z,24.88
2022-08-25T13:44:40.171Z,24.89
2022-08-25T13:47:19.608Z,24.89
2022-08-25T13:49:48.542Z,24.91
2022-08-25T13:52:16.306Z,24.89
2022-08-25T13:54:46.824Z,24.88
2022-08-25T13:57:14.536Z,24.87
2022-08-25T13:59:46.493Z,24.87
2022-08-25T14:02:19.340Z,24.87
2022-08-25T14:04:51.144Z,24.87
2022-08-25T14:07:20.411Z,24.88
2022-08-25T14:09:48.313Z,24.87
2022-08-25T14:12:16.091Z,24.87
2022-08-25T14:14:44.055Z,24.88
2022-08-25T14:17:28.623Z,24.88
2022-08-25T14:19:59.479Z,24.87
2022-08-25T14:22:27.215Z,24.88
2022-08-25T14:24:54.928Z,24.88
2022-08-25T14:27:22.632Z,24.88
2022-08-25T14:29:52.769Z,24.90
2022-08-25T14:32:20.761Z,24.88
2022-08-25T14:34:48.498Z,24.89
2022-08-25T14:37:16.641Z,24.88
2022-08-25T14:39:44.334Z,24.88
2022-08-25T14:42:12.310Z,24.90
2022-08-25T14:44:40.065Z,24.88
2022-08-25T14:47:08.117Z,24.90
2022-08-25T14:49:35.823Z,24.89
2022-08-25T14:52:03.503Z,24.89
2022-08-25T14:54:33.650Z,24.91
2022-08-25T14:57:03.647Z,24.89
2022-08-25T14:59:36.303Z,24.88
2022-08-25T15:02:13.021Z,24.89
2022-08-25T15:04:42.406Z,24.87
2022-08-25T15:07:30.636Z,24.87
2022-08-25T15:09:59.792Z,24.87
2022-08-25T15:12:46.760Z,24.88
2022-08-25T15:15:14.908Z,24.87
2022-08-25T15:17:44.567Z,24.88
2022-08-25T15:20:12.492Z,24.89
2022-08-25T15:22:41.751Z,24.89
2022-08-25T15:25:09.567Z,24.89
2022-08-25T15:27:37.324Z,24.88
2022-08-25T15:30:05.424Z,24.89
2022-08-25T15:32:33.159Z,24.88
2022-08-25T15:35:01.247Z,24.91
2022-08-25T15:37:29.016Z,24.92
2022-08-25T15:39:57.624Z,24.93
2022-08-25T15:42:25.968Z,24.92
2022-08-25T15:44:54.603Z,24.91
2022-08-25T15:47:24.140Z,24.92
2022-08-25T15:49:53.289Z,24.90
2022-08-25T15:52:21.100Z,24.89
2022-08-25T15:54:48.924Z,24.89
2022-08-25T15:57:24.360Z,24.88
2022-08-25T15:59:53.271Z,24.89
2022-08-25T16:02:21.233Z,24.87
2022-08-25T16:04:50.817Z,24.89
2022-08-25T16:07:18.524Z,24.89
2022-08-25T16:09:46.578Z,24.89
2022-08-25T16:12:14.342Z,24.91
2022-08-25T16:14:42.260Z,24.90
2022-08-25T16:17:10.360Z,24.93
2022-08-25T16:19:39.273Z,24.93
2022-08-25T16:22:08.924Z,24.93
2022-08-25T16:24:38.931Z,24.92
2022-08-25T16:27:11.528Z,24.92
2022-08-25T16:29:39.689Z,24.91
2022-08-25T16:32:07.453Z,24.91
2022-08-25T16:34:35.378Z,24.90
2022-08-25T16:37:03.745Z,24.91
2022-08-25T16:39:32.403Z,24.91
2022-08-25T16:42:00.272Z,24.91
2022-08-25T16:44:28.956Z,24.91
2022-08-25T16:46:57.625Z,24.90
2022-08-25T16:49:25.532Z,24.89
2022-08-25T16:51:57.627Z,24.90
2022-08-25T16:54:43.391Z,24.90
2022-08-25T16:57:11.129Z,24.88
2022-08-25T16:59:38.984Z,24.89
2022-08-25T17:02:07.085Z,24.89
2022-08-25T17:04:34.825Z,24.89
2022-08-25T17:07:02.613Z,24.91
2022-08-25T17:09:30.722Z,24.89
2022-08-25T17:11:58.462Z,24.91
2022-08-25T17:14:26.643Z,24.90
2022-08-25T17:16:55.524Z,24.90
2022-08-25T17:19:24.927Z,24.91
2022-08-25T17:21:54.524Z,24.89
2022-08-25T17:24:29.545Z,24.89
2022-08-25T17:26:59.371Z,24.88
2022-08-25T17:29:27.140Z,24.88
2022-08-25T17:31:54.897Z,24.88
2022-08-25T17:34:23.287Z,24.89
2022-08-25T17:36:51.238Z,24.89
2022-08-25T17:39:22.253Z,24.89
2022-08-25T17:41:50.686Z,24.89
2022-08-25T17:44:18.404Z,24.89
2022-08-25T17:46:48.011Z,24.89
2022-08-25T17:49:16.086Z,24.89
2022-08-25T17:51:43.770Z,24.88
2022-08-25T17:54:13.024Z,24.88
2022-08-25T17:56:40.739Z,24.89
2022-08-25T17:59:08.539Z,24.90
2022-08-25T18:01:40.614Z,24.90
2022-08-25T18:04:15.632Z,24.89
2022-08-25T18:06:45.848Z,24.88
2022-08-25T18:09:14.077Z,24.89
2022-08-25T18:11:42.616Z,24.89
2022-08-25T18:14:11.325Z,24.88
2022-08-25T18:16:39.129Z,24.89
2022-08-25T18:19:09.822Z,24.89
2022-08-25T18:21:38.159Z,24.89
2022-08-25T18:24:05.967Z,24.89
2022-08-25T18:26:33.704Z,24.89
2022-08-25T18:29:01.720Z,24.89
2022-08-25T18:31:29.524Z,24.89
2022-08-25T18:33:58.105Z,24.90
2022-08-25T18:36:25.850Z,24.88
2022-08-25T18:39:11.667Z,24.88
2022-08-25T18:41:41.472Z,24.88
2022-08-25T18:44:10.542Z,24.89
2022-08-25T18:46:39.512Z,24.89
2022-08-25T18:49:07.303Z,24.90
2022-08-25T18:51:36.269Z,24.91
2022-08-25T18:54:04.230Z,24.91
2022-08-25T18:56:32.096Z,24.92
2022-08-25T18:59:00.627Z,24.92
2022-08-25T19:01:28.666Z,24.92
2022-08-25T19:03:56.476Z,24.92
2022-08-25T19:06:24.188Z,24.90
2022-08-25T19:08:51.936Z,24.89
2022-08-25T19:11:22.276Z,24.89
2022-08-25T19:13:50.356Z,24.89
2022-08-25T19:16:20.363Z,24.88
2022-08-25T19:18:48.797Z,24.88
2022-08-25T19:21:22.859Z,24.87
2022-08-25T19:23:50.742Z,24.87
2022-08-25T19:26:19.112Z,24.88
2022-08-25T19:28:48.994Z,24.88
2022-08-25T19:31:18.059Z,24.88
2022-08-25T19:33:46.124Z,24.87
2022-08-25T19:36:13.909Z,24.87
2022-08-25T19:38:41.674Z,24.87
2022-08-25T19:41:14.285Z,24.89
2022-08-25T19:43:55.713Z,24.88
2022-08-25T19:46:25.109Z,24.88
2022-08-25T19:48:52.832Z,24.87
2022-08-25T19:51:21.737Z,24.88
2022-08-25T19:53:54.832Z,24.88
2022-08-25T19:56:24.131Z,24.88
2022-08-25T19:58:51.843Z,24.89
2022-08-25T20:01:19.963Z,24.88
2022-08-25T20:03:47.821Z,24.88
2022-08-25T20:06:16.105Z,24.88
2022-08-25T20:08:43.973Z,24.89
2022-08-25T20:11:11.973Z,24.89
2022-08-25T20:13:39.722Z,24.88
2022-08-25T20:16:07.773Z,24.88
2022-08-25T20:18:36.361Z,24.88
2022-08-25T20:21:04.186Z,24.88
2022-08-25T20:23:49.718Z,24.89
2022-08-25T20:26:17.455Z,24.88
2022-08-25T20:28:46.489Z,24.87
2022-08-25T20:31:14.254Z,24.88
2022-08-25T20:33:42.037Z,24.88
2022-08-25T20:36:11.208Z,24.88
2022-08-25T20:38:41.095Z,24.89
2022-08-25T20:41:10.395Z,24.88
2022-08-25T20:43:39.178Z,24.88
2022-08-25T20:46:07.103Z,24.87
2022-08-25T20:48:35.102Z,24.88
2022-08-25T20:51:02.985Z,24.88
2022-08-25T20:53:30.697Z,24.87
2022-08-25T20:55:58.656Z,24.88
2022-08-25T20:58:26.556Z,24.88
2022-08-25T21:00:54.595Z,24.87
2022-08-25T21:03:22.295Z,24.87
2022-08-25T21:05:53.581Z,24.87
2022-08-25T21:08:21.993Z,24.87
2022-08-25T21:10:51.654Z,24.88
2022-08-25T21:13:19.473Z,24.88
2022-08-25T21:15:48.627Z,24.87
2022-08-25T21:18:16.449Z,24.88
2022-08-25T21:20:44.235Z,24.88
2022-08-25T21:23:11.977Z,24.88
2022-08-25T21:25:41.030Z,24.87
2022-08-25T21:28:09.074Z,24.88
2022-08-25T21:30:36.805Z,24.87
2022-08-25T21:33:04.722Z,24.87
2022-08-25T21:35:32.571Z,24.87
2022-08-25T21:38:01.897Z,24.87
2022-08-25T21:40:30.769Z,24.87
2022-08-25T21:42:58.604Z,24.87
2022-08-25T21:45:26.438Z,24.88
2022-08-25T21:48:01.014Z,24.87
2022-08-25T21:50:28.853Z,24.87
2022-08-25T21:52:56.655Z,24.87
2022-08-25T21:55:24.432Z,24.88
2022-08-25T21:57:52.641Z,24.87
2022-08-25T22:00:21.338Z,24.87
2022-08-25T22:02:49.330Z,24.87
2022-08-25T22:05:17.096Z,24.87
2022-08-25T22:07:45.130Z,24.87
2022-08-25T22:10:16.753Z,24.86
2022-08-25T22:12:45.934Z,24.86
2022-08-25T22:15:15.578Z,24.87
2022-08-25T22:17:43.329Z,24.87
2022-08-25T22:20:11.129Z,24.87
2022-08-25T22:22:38.855Z,24.86
2022-08-25T22:25:06.670Z,24.87
2022-08-25T22:27:35.877Z,24.87
2022-08-25T22:30:06.261Z,24.87
2022-08-25T22:32:34.072Z,24.84
2022-08-25T22:35:01.773Z,24.84
2022-08-25T22:37:30.405Z,24.84
2022-08-25T22:39:58.282Z,24.83
2022-08-25T22:42:26.322Z,24.84
2022-08-25T22:44:55.053Z,24.83
2022-08-25T22:47:22.751Z,24.82
2022-08-25T22:49:52.352Z,24.80
2022-08-25T22:52:20.072Z,24.81
2022-08-25T22:54:59.719Z,24.80
2022-08-25T22:57:27.473Z,24.80
2022-08-25T22:59:56.567Z,24.80
2022-08-25T23:02:24.296Z,24.80
2022-08-25T23:04:52.264Z,24.81
2022-08-25T23:07:24.027Z,24.82
2022-08-25T23:09:53.059Z,24.82
2022-08-25T23:12:20.840Z,24.84
2022-08-25T23:14:51.545Z,24.82
2022-08-25T23:17:19.264Z,24.82
2022-08-25T23:19:47.517Z,24.80
2022-08-25T23:22:16.178Z,24.82
2022-08-25T23:24:44.241Z,24.83
2022-08-25T23:27:12.014Z,24.85
2022-08-25T23:29:39.748Z,24.84
2022-08-25T23:32:07.842Z,24.82
2022-08-25T23:34:36.354Z,24.81
2022-08-25T23:37:04.163Z,24.84
2022-08-25T23:39:31.885Z,24.85
2022-08-25T23:41:59.627Z,24.85
2022-08-25T23:44:27.615Z,24.87
2022-08-25T23:46:55.418Z,24.87
2022-08-25T23:49:25.877Z,24.86
2022-08-25T23:51:56.163Z,24.86
2022-08-25T23:54:31.571Z,24.87
2022-08-25T23:56:59.549Z,24.86
2022-08-25T23:59:27.442Z,24.87
